createdAt,value
2019-05-14T00:00:38.293Z,99.90
2019-05-14T00:03:11.350Z,99.90
2019-05-14T00:05:44.443Z,99.90
2019-05-14T00:08:17.673Z,99.90
2019-05-14T00:10:52.033Z,99.90
2019-05-14T00:13:25.149Z,99.90
2019-05-14T00:15:58.039Z,99.90
2019-05-14T00:18:31.496Z,99.90
2019-05-14T00:21:04.774Z,99.90
2019-05-14T00:23:37.583Z,99.90
2019-05-14T00:26:12.187Z,99.90
2019-05-14T00:28:44.845Z,99.90
2019-05-14T00:31:17.798Z,99.90
2019-05-14T00:33:51.323Z,99.90
2019-05-14T00:36:24.538Z,99.90
2019-05-14T00:38:57.334Z,99.90
2019-05-14T00:41:31.232Z,99.90
2019-05-14T00:44:04.288Z,99.90
2019-05-14T00:46:37.316Z,99.90
2019-05-14T00:49:11.883Z,99.90
2019-05-14T00:51:44.699Z,99.90
2019-05-14T00:54:18.018Z,99.90
2019-05-14T00:56:52.131Z,99.90
2019-05-14T00:59:25.398Z,99.70
2019-05-14T01:01:58.058Z,99.60
2019-05-14T01:04:31.688Z,99.60
2019-05-14T01:07:04.920Z,99.90
2019-05-14T01:09:37.664Z,99.10
2019-05-14T01:12:12.131Z,99.40
2019-05-14T01:14:46.228Z,99.90
2019-05-14T01:17:19.064Z,99.90
2019-05-14T01:19:52.504Z,99.90
2019-05-14T01:22:25.399Z,99.90
2019-05-14T01:24:58.519Z,99.90
2019-05-14T01:27:31.742Z,99.90
2019-05-14T01:30:04.858Z,99.90
2019-05-14T01:32:37.604Z,99.90
2019-05-14T01:35:12.089Z,99.90
2019-05-14T01:37:45.960Z,99.90
2019-05-14T01:40:19.094Z,99.90
2019-05-14T01:42:52.451Z,99.90
2019-05-14T01:45:28.353Z,99.90
2019-05-14T01:48:01.201Z,99.90
2019-05-14T01:50:34.383Z,99.90
2019-05-14T01:53:07.178Z,99.90
2019-05-14T01:55:41.458Z,99.90
2019-05-14T01:58:14.632Z,99.90
2019-05-14T02:00:47.719Z,99.90
2019-05-14T02:03:21.512Z,99.90
2019-05-14T02:05:54.614Z,99.90
2019-05-14T02:08:27.893Z,99.90
2019-05-14T02:11:01.615Z,99.90
2019-05-14T02:13:35.070Z,99.90
2019-05-14T02:16:07.944Z,99.90
2019-05-14T02:18:41.620Z,99.90
2019-05-14T02:21:14.603Z,99.90
2019-05-14T02:23:47.609Z,98.60
2019-05-14T02:26:22.067Z,99.00
2019-05-14T02:28:55.293Z,98.40
2019-05-14T02:31:29.309Z,98.70
2019-05-14T02:34:02.367Z,99.50
2019-05-14T02:36:35.198Z,99.10
2019-05-14T02:39:10.274Z,99.30
2019-05-14T02:41:43.322Z,99.20
2019-05-14T02:44:18.913Z,99.00
2019-05-14T02:46:51.192Z,98.30
2019-05-14T02:49:23.964Z,98.70
2019-05-14T02:51:59.003Z,99.00
2019-05-14T02:54:31.381Z,97.90
2019-05-14T02:57:04.226Z,97.70
2019-05-14T02:59:39.450Z,98.50
2019-05-14T03:02:11.813Z,98.50
2019-05-14T03:04:44.559Z,98.30
2019-05-14T03:07:19.492Z,97.80
2019-05-14T03:09:52.275Z,96.90
2019-05-14T03:12:25.449Z,98.60
2019-05-14T03:14:58.985Z,98.50
2019-05-14T03:17:31.977Z,98.30
2019-05-14T03:20:04.750Z,98.00
2019-05-14T03:22:46.101Z,98.40
2019-05-14T03:25:12.759Z,97.50
2019-05-14T03:27:49.411Z,99.50
2019-05-14T03:30:22.973Z,98.20
2019-05-14T03:33:01.867Z,98.10
2019-05-14T03:35:41.264Z,97.60
2019-05-14T03:38:05.060Z,98.80
2019-05-14T03:40:39.960Z,99.00
2019-05-14T03:43:12.641Z,96.90
2019-05-14T03:45:45.404Z,96.70
2019-05-14T03:48:19.294Z,95.80
2019-05-14T03:50:54.085Z,96.50
2019-05-14T03:53:29.562Z,96.60
2019-05-14T03:56:01.544Z,97.20
2019-05-14T03:58:34.309Z,98.10
2019-05-14T04:01:09.687Z,97.40
2019-05-14T04:03:41.468Z,97.40
2019-05-14T04:06:14.760Z,96.80
2019-05-14T04:08:49.698Z,96.00
2019-05-14T04:11:22.032Z,96.80
2019-05-14T04:13:55.205Z,97.60
2019-05-14T04:16:29.231Z,96.30
2019-05-14T04:19:02.591Z,96.70
2019-05-14T04:21:35.291Z,98.20
2019-05-14T04:24:09.760Z,98.10
2019-05-14T04:26:56.124Z,98.50
2019-05-14T04:29:19.656Z,96.50
2019-05-14T04:31:51.470Z,97.30
2019-05-14T04:34:24.384Z,96.70
2019-05-14T04:36:59.331Z,95.20
2019-05-14T04:39:33.325Z,96.90
2019-05-14T04:42:09.254Z,96.60
2019-05-14T04:44:41.270Z,97.40
2019-05-14T04:47:27.678Z,96.00
2019-05-14T04:49:50.568Z,95.40
2019-05-14T04:52:25.116Z,96.70
2019-05-14T04:54:59.420Z,97.40
2019-05-14T04:57:32.614Z,97.10
2019-05-14T05:00:05.416Z,96.10
2019-05-14T05:02:39.801Z,96.70
2019-05-14T05:05:12.637Z,97.20
2019-05-14T05:07:45.414Z,97.80
2019-05-14T05:10:19.317Z,96.70
2019-05-14T05:12:52.846Z,95.40
2019-05-14T05:15:25.576Z,97.00
2019-05-14T05:17:59.063Z,95.80
2019-05-14T05:20:32.367Z,96.60
2019-05-14T05:23:08.364Z,96.40
2019-05-14T05:25:40.316Z,96.60
2019-05-14T05:28:13.171Z,96.00
2019-05-14T05:30:48.907Z,97.20
2019-05-14T05:33:20.992Z,95.20
2019-05-14T05:35:54.152Z,96.60
2019-05-14T05:38:29.246Z,95.10
2019-05-14T05:41:01.421Z,94.50
2019-05-14T05:43:34.158Z,95.30
2019-05-14T05:46:08.657Z,95.20
2019-05-14T05:48:42.278Z,96.00
2019-05-14T05:51:14.934Z,95.50
2019-05-14T05:53:48.363Z,95.60
2019-05-14T05:56:21.598Z,94.80
2019-05-14T05:58:54.329Z,94.90
2019-05-14T06:01:42.136Z,95.70
2019-05-14T06:04:01.962Z,94.50
2019-05-14T06:06:34.813Z,95.50
2019-05-14T06:09:08.908Z,95.10
2019-05-14T06:11:42.288Z,95.50
2019-05-14T06:14:15.438Z,96.00
2019-05-14T06:16:48.866Z,96.30
2019-05-14T06:19:21.905Z,97.00
2019-05-14T06:21:54.684Z,98.40
2019-05-14T06:24:28.549Z,97.80
2019-05-14T06:27:01.987Z,95.80
2019-05-14T06:29:35.436Z,96.10
2019-05-14T06:32:09.237Z,95.70
2019-05-14T06:34:42.248Z,96.00
2019-05-14T06:37:15.163Z,96.50
2019-05-14T06:39:48.437Z,95.40
2019-05-14T06:42:21.649Z,94.90
2019-05-14T06:44:54.397Z,95.50
2019-05-14T06:47:28.943Z,94.60
2019-05-14T06:50:01.519Z,95.50
2019-05-14T06:52:34.297Z,94.50
2019-05-14T06:55:08.893Z,95.90
2019-05-14T06:57:41.719Z,94.50
2019-05-14T07:00:14.640Z,94.40
2019-05-14T07:02:49.098Z,93.70
2019-05-14T07:05:22.368Z,95.30
2019-05-14T07:07:55.769Z,94.70
2019-05-14T07:10:28.833Z,95.10
2019-05-14T07:13:01.808Z,94.80
2019-05-14T07:15:34.684Z,93.90
2019-05-14T07:18:08.629Z,91.60
2019-05-14T07:20:42.329Z,92.90
2019-05-14T07:23:15.212Z,92.20
2019-05-14T07:25:48.282Z,92.90
2019-05-14T07:28:21.684Z,94.00
2019-05-14T07:30:54.839Z,92.70
2019-05-14T07:33:29.317Z,94.00
2019-05-14T07:36:01.960Z,93.10
2019-05-14T07:38:34.714Z,93.30
2019-05-14T07:41:09.307Z,91.70
2019-05-14T07:43:42.033Z,91.50
2019-05-14T07:46:14.681Z,91.90
2019-05-14T07:49:03.837Z,92.60
2019-05-14T07:51:21.965Z,93.70
2019-05-14T07:53:54.772Z,92.20
2019-05-14T07:56:29.433Z,93.20
2019-05-14T07:59:02.819Z,93.30
2019-05-14T08:01:38.626Z,93.00
2019-05-14T08:04:11.699Z,92.80
2019-05-14T08:06:45.058Z,92.90
2019-05-14T08:09:18.939Z,93.60
2019-05-14T08:11:52.204Z,92.70
2019-05-14T08:14:24.939Z,93.00
2019-05-14T08:16:59.481Z,94.00
2019-05-14T08:19:34.522Z,94.10
2019-05-14T08:22:09.169Z,94.60
2019-05-14T08:24:41.489Z,94.80
2019-05-14T08:27:14.724Z,93.90
2019-05-14T08:29:48.614Z,95.40
2019-05-14T08:32:22.418Z,95.90
2019-05-14T08:34:55.360Z,95.60
2019-05-14T08:37:28.509Z,96.60
2019-05-14T08:40:01.709Z,94.20
2019-05-14T08:42:35.262Z,94.60
2019-05-14T08:45:10.623Z,94.40
2019-05-14T08:47:43.529Z,94.30
2019-05-14T08:50:18.557Z,94.70
2019-05-14T08:52:51.149Z,94.20
2019-05-14T08:55:24.089Z,93.70
2019-05-14T08:57:59.223Z,94.60
2019-05-14T09:00:31.982Z,94.10
2019-05-14T09:03:04.805Z,95.80
2019-05-14T09:05:38.656Z,94.00
2019-05-14T09:08:11.495Z,95.20
2019-05-14T09:10:44.129Z,94.60
2019-05-14T09:13:18.403Z,92.40
2019-05-14T09:15:51.424Z,92.60
2019-05-14T09:18:24.134Z,91.80
2019-05-14T09:20:58.185Z,92.80
2019-05-14T09:23:31.308Z,92.00
2019-05-14T09:26:04.218Z,86.80
2019-05-14T09:28:39.294Z,89.90
2019-05-14T09:31:11.964Z,89.60
2019-05-14T09:33:44.594Z,90.60
2019-05-14T09:36:22.684Z,91.40
2019-05-14T09:38:52.046Z,90.10
2019-05-14T09:41:27.741Z,92.90
2019-05-14T09:43:59.335Z,91.40
2019-05-14T09:46:32.106Z,92.60
2019-05-14T09:49:04.843Z,92.20
2019-05-14T09:51:38.460Z,90.60
2019-05-14T09:54:11.572Z,90.00
2019-05-14T09:56:44.691Z,87.70
2019-05-14T09:59:18.594Z,92.40
2019-05-14T10:01:51.757Z,87.40
2019-05-14T10:04:25.239Z,90.30
2019-05-14T10:06:59.234Z,87.80
2019-05-14T10:09:32.483Z,78.10
2019-05-14T10:12:05.249Z,86.40
2019-05-14T10:14:39.276Z,90.10
2019-05-14T10:17:12.520Z,88.80
2019-05-14T10:19:45.524Z,90.90
2019-05-14T10:22:19.713Z,90.90
2019-05-14T10:24:52.699Z,91.70
2019-05-14T10:27:25.473Z,91.80
2019-05-14T10:29:58.878Z,91.30
2019-05-14T10:32:31.940Z,92.30
2019-05-14T10:35:04.603Z,92.40
2019-05-14T10:37:39.997Z,91.70
2019-05-14T10:40:12.163Z,91.30
2019-05-14T10:42:44.956Z,93.10
2019-05-14T10:45:18.678Z,90.40
2019-05-14T10:47:52.218Z,91.00
2019-05-14T10:50:25.016Z,90.30
2019-05-14T10:52:59.471Z,91.20
2019-05-14T10:55:32.455Z,90.50
2019-05-14T10:58:05.244Z,94.10
2019-05-14T11:00:41.552Z,90.60
2019-05-14T11:03:13.239Z,88.00
2019-05-14T11:05:48.027Z,91.80
2019-05-14T11:08:20.426Z,89.10
2019-05-14T11:10:54.116Z,90.70
2019-05-14T11:13:29.307Z,87.20
2019-05-14T11:16:02.064Z,88.60
2019-05-14T11:18:35.615Z,90.70
2019-05-14T11:21:21.538Z,92.00
2019-05-14T11:23:44.019Z,92.60
2019-05-14T11:26:18.441Z,93.10
2019-05-14T11:28:52.239Z,94.90
2019-05-14T11:31:25.085Z,94.70
2019-05-14T11:33:59.023Z,96.00
2019-05-14T11:36:32.309Z,96.10
2019-05-14T11:39:05.651Z,96.30
2019-05-14T11:41:38.954Z,97.70
2019-05-14T11:44:12.723Z,98.50
2019-05-14T11:46:56.233Z,99.00
2019-05-14T11:49:20.281Z,99.90
2019-05-14T11:52:04.071Z,99.90
2019-05-14T11:54:29.229Z,99.90
2019-05-14T11:57:02.791Z,99.90
2019-05-14T11:59:36.244Z,99.90
2019-05-14T12:02:09.624Z,99.90
2019-05-14T12:04:42.904Z,99.90
2019-05-14T12:07:15.843Z,99.90
2019-05-14T12:09:48.694Z,99.90
2019-05-14T12:12:21.514Z,99.90
2019-05-14T12:14:54.403Z,99.90
2019-05-14T12:17:29.506Z,99.90
2019-05-14T12:20:01.631Z,99.90
2019-05-14T12:22:34.705Z,99.90
2019-05-14T12:25:08.327Z,99.90
2019-05-14T12:27:41.945Z,99.30
2019-05-14T12:30:14.669Z,99.40
2019-05-14T12:32:50.086Z,98.80
2019-05-14T12:35:22.734Z,99.60
2019-05-14T12:37:55.526Z,99.90
2019-05-14T12:40:28.850Z,99.30
2019-05-14T12:43:01.971Z,98.20
2019-05-14T12:45:35.288Z,98.10
2019-05-14T12:48:09.324Z,98.40
2019-05-14T12:50:42.488Z,98.50
2019-05-14T12:53:15.456Z,98.60
2019-05-14T12:55:48.748Z,98.20
2019-05-14T12:58:21.796Z,95.60
2019-05-14T13:00:54.609Z,95.70
2019-05-14T13:03:28.469Z,95.80
2019-05-14T13:06:02.018Z,96.60
2019-05-14T13:08:34.759Z,96.70
2019-05-14T13:11:09.774Z,96.90
2019-05-14T13:13:43.204Z,97.20
2019-05-14T13:16:18.732Z,96.40
2019-05-14T13:18:50.951Z,96.60
2019-05-14T13:21:23.769Z,93.00
2019-05-14T13:23:56.474Z,95.20
2019-05-14T13:26:29.937Z,96.80
2019-05-14T13:29:05.575Z,95.30
2019-05-14T13:31:37.982Z,97.20
2019-05-14T13:34:11.420Z,95.90
2019-05-14T13:36:45.217Z,97.70
2019-05-14T13:39:19.376Z,96.40
2019-05-14T13:41:53.019Z,97.10
2019-05-14T13:44:25.956Z,95.10
2019-05-14T13:46:59.542Z,95.50
2019-05-14T13:49:33.170Z,97.20
2019-05-14T13:52:09.113Z,96.30
2019-05-14T13:54:40.940Z,96.60
2019-05-14T13:57:13.828Z,98.10
2019-05-14T13:59:49.176Z,97.60
2019-05-14T14:02:22.077Z,97.60
2019-05-14T14:04:54.994Z,97.60
2019-05-14T14:07:27.719Z,98.00
2019-05-14T14:10:00.562Z,98.50
2019-05-14T14:12:33.332Z,98.00
2019-05-14T14:15:09.190Z,98.40
2019-05-14T14:17:40.761Z,97.80
2019-05-14T14:20:13.645Z,98.50
2019-05-14T14:22:49.080Z,96.20
2019-05-14T14:25:21.263Z,96.80
2019-05-14T14:27:54.843Z,96.90
2019-05-14T14:30:28.539Z,96.20
2019-05-14T14:33:02.058Z,96.00
2019-05-14T14:35:35.090Z,97.20
2019-05-14T14:38:08.709Z,96.40
2019-05-14T14:40:42.119Z,96.90
2019-05-14T14:43:14.921Z,97.20
2019-05-14T14:45:51.284Z,96.90
2019-05-14T14:48:22.333Z,97.30
2019-05-14T14:50:58.450Z,96.40
2019-05-14T14:53:43.001Z,97.90
2019-05-14T14:56:04.361Z,97.60
2019-05-14T14:58:39.212Z,98.40
2019-05-14T15:01:12.956Z,98.20
2019-05-14T15:03:49.327Z,97.20
2019-05-14T15:06:20.813Z,96.90
2019-05-14T15:08:53.715Z,97.80
2019-05-14T15:11:29.355Z,96.30
2019-05-14T15:14:01.414Z,97.50
2019-05-14T15:16:34.194Z,96.20
2019-05-14T15:19:09.248Z,97.20
2019-05-14T15:21:41.610Z,96.70
2019-05-14T15:24:15.792Z,96.20
2019-05-14T15:26:48.934Z,96.80
2019-05-14T15:29:21.655Z,96.90
2019-05-14T15:31:54.843Z,96.20
2019-05-14T15:34:29.665Z,96.70
2019-05-14T15:37:02.570Z,94.70
2019-05-14T15:39:35.513Z,96.30
2019-05-14T15:42:13.287Z,95.90
2019-05-14T15:44:52.183Z,96.60
2019-05-14T15:47:18.994Z,97.70
2019-05-14T15:49:52.601Z,97.50
2019-05-14T15:52:25.347Z,97.70
2019-05-14T15:54:58.169Z,97.40
2019-05-14T15:57:30.923Z,96.90
2019-05-14T16:00:03.730Z,97.30
2019-05-14T16:02:39.087Z,97.50
2019-05-14T16:05:11.158Z,96.90
2019-05-14T16:07:43.903Z,96.80
2019-05-14T16:10:16.819Z,97.00
2019-05-14T16:12:50.185Z,96.90
2019-05-14T16:15:23.348Z,95.20
2019-05-14T16:18:08.019Z,95.40
2019-05-14T16:20:30.984Z,96.30
2019-05-14T16:23:03.651Z,97.50
2019-05-14T16:25:38.001Z,97.50
2019-05-14T16:28:11.568Z,96.30
2019-05-14T16:30:44.874Z,97.20
2019-05-14T16:33:18.635Z,98.00
2019-05-14T16:35:51.888Z,97.70
2019-05-14T16:38:24.650Z,96.90
2019-05-14T16:40:59.660Z,96.80
2019-05-14T16:43:32.383Z,97.80
2019-05-14T16:46:09.231Z,98.50
2019-05-14T16:48:40.993Z,98.80
2019-05-14T16:51:14.719Z,97.60
2019-05-14T16:53:48.831Z,98.70
2019-05-14T16:56:22.368Z,98.90
2019-05-14T16:58:55.184Z,99.90
2019-05-14T17:01:30.764Z,99.40
2019-05-14T17:04:03.359Z,99.60
2019-05-14T17:06:38.572Z,98.90
2019-05-14T17:09:10.998Z,97.90
2019-05-14T17:11:43.824Z,98.00
2019-05-14T17:14:18.346Z,97.60
2019-05-14T17:16:51.139Z,97.90
2019-05-14T17:19:24.250Z,97.70
2019-05-14T17:21:59.443Z,97.40
2019-05-14T17:24:31.579Z,98.00
2019-05-14T17:27:04.304Z,97.50
2019-05-14T17:29:38.886Z,98.00
2019-05-14T17:32:12.310Z,98.40
2019-05-14T17:34:45.055Z,99.40
2019-05-14T17:37:19.100Z,98.70
2019-05-14T17:39:52.121Z,98.90
2019-05-14T17:42:24.919Z,98.00
2019-05-14T17:44:58.944Z,98.20
2019-05-14T17:47:31.977Z,98.70
2019-05-14T17:50:04.777Z,98.20
2019-05-14T17:52:43.673Z,98.40
2019-05-14T17:55:12.664Z,98.40
2019-05-14T17:57:48.945Z,99.60
2019-05-14T18:00:20.127Z,99.20
2019-05-14T18:02:52.854Z,99.40
2019-05-14T18:05:26.033Z,99.50
2019-05-14T18:07:59.522Z,99.00
2019-05-14T18:10:32.603Z,99.00
2019-05-14T18:13:05.488Z,99.90
2019-05-14T18:15:39.425Z,99.50
2019-05-14T18:18:13.114Z,99.90
2019-05-14T18:20:45.798Z,99.90
2019-05-14T18:23:18.685Z,99.90
2019-05-14T18:26:03.475Z,99.90
2019-05-14T18:28:28.645Z,99.60
2019-05-14T18:31:00.880Z,99.90
2019-05-14T18:33:33.689Z,99.90
2019-05-14T18:36:06.468Z,99.90
2019-05-14T18:38:39.245Z,99.90
2019-05-14T18:41:12.054Z,99.90
2019-05-14T18:43:45.014Z,99.30
2019-05-14T18:46:19.161Z,99.70
2019-05-14T18:48:53.089Z,99.90
2019-05-14T18:51:25.744Z,99.90
2019-05-14T18:53:58.899Z,99.90
2019-05-14T18:56:31.801Z,99.90
2019-05-14T18:59:04.596Z,99.90
2019-05-14T19:01:39.637Z,99.60
2019-05-14T19:04:11.857Z,98.50
2019-05-14T19:06:45.251Z,98.80
2019-05-14T19:09:18.741Z,99.80
2019-05-14T19:11:52.322Z,99.10
2019-05-14T19:14:25.814Z,99.80
2019-05-14T19:16:58.649Z,98.70
2019-05-14T19:19:31.727Z,99.60
2019-05-14T19:22:04.384Z,98.80
2019-05-14T19:24:38.249Z,99.10
2019-05-14T19:27:11.519Z,99.20
2019-05-14T19:29:44.313Z,99.40
2019-05-14T19:32:19.110Z,99.30
2019-05-14T19:34:51.478Z,99.30
2019-05-14T19:37:24.289Z,99.50
2019-05-14T19:39:58.681Z,99.70
2019-05-14T19:42:31.974Z,99.10
2019-05-14T19:45:04.775Z,98.90
2019-05-14T19:47:39.982Z,99.40
2019-05-14T19:50:12.614Z,99.90
2019-05-14T19:52:45.555Z,99.10
2019-05-14T19:55:18.969Z,99.70
2019-05-14T19:57:52.314Z,99.60
2019-05-14T20:00:25.236Z,99.90
2019-05-14T20:02:58.295Z,99.10
2019-05-14T20:05:31.078Z,99.90
2019-05-14T20:08:04.007Z,99.60
2019-05-14T20:10:38.821Z,99.30
2019-05-14T20:13:11.418Z,98.90
2019-05-14T20:15:44.537Z,99.20
2019-05-14T20:18:17.305Z,98.50
2019-05-14T20:20:50.238Z,99.80
2019-05-14T20:23:23.171Z,99.70
2019-05-14T20:25:55.845Z,99.40
2019-05-14T20:28:28.539Z,99.20
2019-05-14T20:31:01.296Z,99.90
2019-05-14T20:33:34.210Z,99.80
2019-05-14T20:36:08.314Z,99.30
2019-05-14T20:38:42.087Z,99.90
2019-05-14T20:41:14.815Z,99.90
2019-05-14T20:43:48.017Z,99.90
2019-05-14T20:46:21.253Z,99.90
2019-05-14T20:48:54.058Z,99.50
2019-05-14T20:51:28.296Z,99.80
2019-05-14T20:54:01.917Z,99.90
2019-05-14T20:56:34.841Z,99.90
2019-05-14T20:59:08.263Z,99.90
2019-05-14T21:01:41.692Z,99.90
2019-05-14T21:04:14.867Z,99.90
2019-05-14T21:06:48.625Z,99.90
2019-05-14T21:09:22.317Z,99.90
2019-05-14T21:11:55.266Z,99.90
2019-05-14T21:14:28.041Z,99.90
2019-05-14T21:17:01.033Z,99.90
2019-05-14T21:19:34.391Z,99.90
2019-05-14T21:22:08.360Z,99.90
2019-05-14T21:24:42.208Z,99.90
2019-05-14T21:27:15.091Z,99.90
2019-05-14T21:29:48.894Z,99.90
2019-05-14T21:32:22.433Z,99.90
2019-05-14T21:34:55.043Z,99.90
2019-05-14T21:37:28.462Z,99.90
2019-05-14T21:40:01.661Z,99.90
2019-05-14T21:42:34.864Z,99.90
2019-05-14T21:45:09.808Z,99.90
2019-05-14T21:47:42.173Z,99.90
2019-05-14T21:50:15.004Z,99.90
2019-05-14T21:52:49.610Z,99.90
2019-05-14T21:55:22.283Z,99.90
2019-05-14T21:57:57.320Z,99.90
2019-05-14T22:00:31.329Z,99.90
2019-05-14T22:03:04.127Z,99.90
2019-05-14T22:05:39.122Z,99.90
2019-05-14T22:08:11.324Z,99.90
2019-05-14T22:10:44.980Z,99.90
2019-05-14T22:13:18.169Z,99.90
2019-05-14T22:15:51.168Z,99.90
2019-05-14T22:18:23.963Z,99.90
2019-05-14T22:20:58.016Z,99.90
2019-05-14T22:23:31.324Z,99.90
2019-05-14T22:26:04.108Z,99.90
2019-05-14T22:28:36.943Z,99.90
2019-05-14T22:31:11.743Z,99.90
2019-05-14T22:33:45.409Z,99.90
2019-05-14T22:36:21.406Z,99.90
2019-05-14T22:38:53.223Z,99.90
2019-05-14T22:41:25.908Z,99.90
2019-05-14T22:43:59.953Z,99.90
2019-05-14T22:46:34.038Z,99.90
2019-05-14T22:49:08.759Z,99.90
2019-05-14T22:51:41.498Z,99.90
2019-05-14T22:54:14.709Z,99.90
2019-05-14T22:56:48.169Z,99.90
2019-05-14T22:59:21.233Z,99.90
2019-05-14T23:01:54.519Z,99.90
2019-05-14T23:04:28.953Z,99.90
2019-05-14T23:07:01.911Z,99.90
2019-05-14T23:09:34.678Z,99.90
2019-05-14T23:12:12.064Z,99.90
2019-05-14T23:14:42.148Z,99.90
2019-05-14T23:17:14.868Z,99.90
2019-05-14T23:19:48.372Z,99.90
2019-05-14T23:22:22.968Z,99.90
2019-05-14T23:24:59.052Z,99.90
2019-05-14T23:27:31.269Z,99.90
2019-05-14T23:30:04.074Z,99.90
2019-05-14T23:32:38.372Z,99.90
2019-05-14T23:35:11.943Z,99.90
2019-05-14T23:37:45.138Z,99.90
2019-05-14T23:40:17.943Z,99.90
2019-05-14T23:42:51.413Z,99.90
2019-05-14T23:45:24.418Z,99.90
2019-05-14T23:47:58.627Z,99.90
2019-05-14T23:50:31.733Z,99.90
2019-05-14T23:53:04.391Z,99.90
2019-05-14T23:55:38.517Z,99.90
2019-05-14T23:58:11.797Z,99.90
